Time;durP1;ratioP1;P1;durP2;ratioP2;P2;SDS_P1;SDS_P2;PMS_P1;PMS_P2;Temp;Humidity;BMP_temperature;BMP_pressure;BME280_temperature;BME280_humidity;BME280_pressure;Samples;Min_cycle;Max_cycle;Signal;HPM_P1;HPM_P2
2021/10/05 00:01:26;;;;;;;15.60;14.00;;;12.20;99.90;;;;;;4893200;29;20290;-79
2021/10/05 00:03:53;;;;;;;14.80;13.30;;;12.30;99.90;;;;;;4910725;29;20217;-78
2021/10/05 00:06:20;;;;;;;14.57;12.83;;;12.20;99.90;;;;;;4916543;29;20631;-79
2021/10/05 00:08:48;;;;;;;13.67;12.27;;;12.20;99.90;;;;;;4904431;29;20230;-78
2021/10/05 00:11:16;;;;;;;13.60;12.17;;;12.20;99.90;;;;;;4896887;29;20648;-78
2021/10/05 00:13:43;;;;;;;13.83;12.27;;;12.10;99.90;;;;;;4900350;29;20668;-78
2021/10/05 00:16:10;;;;;;;14.07;12.67;;;12.20;99.90;;;;;;4906419;29;20693;-78
2021/10/05 00:18:37;;;;;;;14.80;13.20;;;12.20;99.90;;;;;;4910227;29;20255;-78
2021/10/05 00:21:04;;;;;;;15.03;13.43;;;12.20;99.90;;;;;;4905103;29;20308;-78
2021/10/05 00:23:31;;;;;;;14.97;13.27;;;12.20;99.90;;;;;;4893352;29;20273;-78
2021/10/05 00:25:59;;;;;;;13.13;11.73;;;12.10;99.90;;;;;;4915587;29;20723;-78
2021/10/05 00:28:26;;;;;;;13.47;12.07;;;12.00;99.90;;;;;;4903881;29;20208;-78
2021/10/05 00:30:53;;;;;;;13.83;12.30;;;12.00;99.90;;;;;;4902885;29;20197;-78
2021/10/05 00:33:20;;;;;;;13.13;11.83;;;12.00;99.90;;;;;;4913681;29;20205;-78
2021/10/05 00:35:46;;;;;;;15.00;12.63;;;12.00;99.90;;;;;;4907803;29;20207;-78
2021/10/05 00:38:13;;;;;;;14.93;12.87;;;12.00;99.90;;;;;;4901115;29;20198;-78
2021/10/05 00:40:40;;;;;;;14.87;13.10;;;11.90;99.90;;;;;;4902842;29;20293;-78
2021/10/05 00:43:10;;;;;;;16.10;13.47;;;11.90;99.90;;;;;;4910132;29;20713;-78
2021/10/05 00:45:37;;;;;;;13.17;11.87;;;11.90;99.90;;;;;;4900222;29;20201;-78
2021/10/05 00:48:05;;;;;;;14.77;12.87;;;11.90;99.90;;;;;;4896317;29;20224;-78
2021/10/05 00:50:32;;;;;;;13.53;12.13;;;12.00;99.90;;;;;;4908549;29;20208;-78
2021/10/05 00:52:59;;;;;;;16.27;14.57;;;11.90;99.90;;;;;;4894513;29;20220;-78
2021/10/05 00:55:26;;;;;;;13.87;12.13;;;12.00;99.90;;;;;;4902955;29;20213;-78
2021/10/05 00:57:54;;;;;;;15.67;13.87;;;12.00;99.90;;;;;;4900450;29;20203;-78
2021/10/05 01:00:24;;;;;;;16.30;13.57;;;11.90;99.90;;;;;;4899758;29;20264;-78
2021/10/05 01:02:51;;;;;;;14.50;13.00;;;12.00;99.90;;;;;;4898342;29;20270;-78
2021/10/05 01:05:18;;;;;;;16.13;14.33;;;11.90;99.90;;;;;;4908812;29;20189;-78
2021/10/05 01:07:48;;;;;;;16.00;14.30;;;11.90;99.90;;;;;;4898587;29;20221;-77
2021/10/05 01:10:17;;;;;;;16.07;14.43;;;12.00;99.90;;;;;;4904866;29;20683;-78
2021/10/05 01:12:46;;;;;;;15.27;13.67;;;11.90;99.90;;;;;;4902982;29;20251;-79
2021/10/05 01:15:14;;;;;;;16.23;13.40;;;11.90;99.90;;;;;;4902176;29;20204;-79
2021/10/05 01:17:42;;;;;;;15.13;13.43;;;11.90;99.90;;;;;;4898429;29;20571;-78
2021/10/05 01:20:10;;;;;;;16.00;14.30;;;11.90;99.90;;;;;;4894956;29;20204;-79
2021/10/05 01:22:39;;;;;;;15.40;13.80;;;11.90;99.90;;;;;;4911194;29;20225;-79
2021/10/05 01:25:08;;;;;;;14.93;13.33;;;11.90;99.90;;;;;;4902465;29;20205;-78
2021/10/05 01:27:41;;;;;;;21.47;19.37;;;11.90;99.90;;;;;;4894425;29;20652;-80
2021/10/05 01:30:09;;;;;;;21.83;19.83;;;12.00;99.90;;;;;;4905971;29;20195;-78
2021/10/05 01:32:36;;;;;;;21.53;19.27;;;11.90;99.90;;;;;;4899828;29;20237;-79
2021/10/05 01:35:04;;;;;;;20.87;18.93;;;11.90;99.90;;;;;;4907939;29;20293;-78
2021/10/05 01:37:31;;;;;;;19.43;17.73;;;11.90;99.90;;;;;;4903980;29;20560;-78
2021/10/05 01:39:59;;;;;;;18.57;16.97;;;11.80;99.90;;;;;;4893897;29;20216;-78
2021/10/05 01:42:26;;;;;;;20.80;18.80;;;11.80;99.90;;;;;;4895104;29;20225;-78
2021/10/05 01:44:55;;;;;;;20.37;18.47;;;11.80;99.90;;;;;;4905872;29;20204;-78
2021/10/05 01:47:22;;;;;;;19.53;17.63;;;11.90;99.90;;;;;;4903138;29;20202;-78
2021/10/05 01:49:50;;;;;;;21.10;19.10;;;11.90;99.90;;;;;;4904203;29;20203;-78
2021/10/05 01:52:17;;;;;;;17.07;15.33;;;12.00;99.90;;;;;;4905959;29;20647;-78
2021/10/05 01:54:44;;;;;;;20.10;18.20;;;12.00;99.90;;;;;;4908416;29;20221;-78
2021/10/05 01:57:12;;;;;;;20.97;18.93;;;12.00;99.90;;;;;;4912769;29;20201;-80
2021/10/05 01:59:39;;;;;;;21.73;19.63;;;11.90;99.90;;;;;;4886958;29;20191;-78
2021/10/05 02:02:06;;;;;;;20.27;18.37;;;12.00;99.90;;;;;;4905109;29;20364;-78
2021/10/05 02:04:33;;;;;;;20.93;19.03;;;11.90;99.90;;;;;;4905888;29;20256;-78
2021/10/05 02:07:00;;;;;;;22.53;20.23;;;11.90;99.90;;;;;;4898112;29;20265;-79
2021/10/05 02:09:26;;;;;;;23.63;21.43;;;11.90;99.90;;;;;;4904997;29;20279;-78
2021/10/05 02:11:54;;;;;;;21.77;19.77;;;11.90;99.90;;;;;;4907829;29;20273;-78
2021/10/05 02:14:22;;;;;;;21.77;19.77;;;11.90;99.90;;;;;;4908474;29;20203;-79
2021/10/05 02:16:49;;;;;;;22.80;20.80;;;12.00;99.90;;;;;;4897493;29;20723;-79
2021/10/05 02:19:15;;;;;;;22.53;20.30;;;12.00;99.90;;;;;;4888619;29;20205;-78
2021/10/05 02:21:42;;;;;;;18.77;16.87;;;12.00;99.90;;;;;;4898599;29;20237;-78
2021/10/05 02:26:56;;;;;;;17.70;15.63;;;11.90;99.90;;;;;;4903982;29;20579;-79
2021/10/05 02:29:25;;;;;;;16.97;14.07;;;11.90;99.90;;;;;;4880610;29;20764;-78
2021/10/05 02:31:51;;;;;;;21.67;19.77;;;11.90;99.90;;;;;;4901796;29;20276;-78
2021/10/05 02:34:19;;;;;;;20.93;18.93;;;11.90;99.90;;;;;;4910203;29;20211;-78
2021/10/05 02:36:46;;;;;;;21.90;19.80;;;11.80;99.90;;;;;;4897900;29;20272;-79
2021/10/05 02:39:14;;;;;;;22.43;20.33;;;11.80;99.90;;;;;;4888354;29;20206;-78
2021/10/05 02:41:40;;;;;;;21.63;19.63;;;11.80;99.90;;;;;;4896909;29;20281;-79
2021/10/05 02:44:07;;;;;;;23.53;21.10;;;11.90;99.90;;;;;;4899344;29;20200;-80
2021/10/05 02:46:35;;;;;;;23.77;21.23;;;11.80;99.90;;;;;;4902470;29;20278;-80
2021/10/05 02:49:02;;;;;;;22.40;20.30;;;11.90;99.90;;;;;;4901003;29;20713;-80
2021/10/05 02:51:29;;;;;;;24.47;22.03;;;11.90;99.90;;;;;;4883164;29;20278;-80
2021/10/05 02:53:56;;;;;;;21.23;19.23;;;11.90;99.90;;;;;;4881975;29;20217;-80
2021/10/05 02:56:23;;;;;;;21.43;19.33;;;11.90;99.90;;;;;;4885766;29;20208;-80
2021/10/05 02:58:49;;;;;;;19.60;17.50;;;11.90;99.90;;;;;;4882583;29;20438;-80
2021/10/05 03:01:16;;;;;;;19.37;16.87;;;12.00;99.90;;;;;;4880135;29;20307;-80
2021/10/05 03:03:44;;;;;;;19.50;16.53;;;12.00;99.90;;;;;;4881131;29;20262;-80
2021/10/05 03:06:11;;;;;;;17.93;14.83;;;12.10;99.90;;;;;;4890731;29;20205;-80
2021/10/05 03:08:41;;;;;;;18.30;15.20;;;12.10;99.90;;;;;;4893045;29;20284;-79
2021/10/05 03:11:08;;;;;;;19.80;16.13;;;12.10;99.90;;;;;;4890354;29;20281;-81
2021/10/05 03:13:35;;;;;;;17.17;15.00;;;12.10;99.90;;;;;;4892262;29;20213;-79
2021/10/05 03:16:03;;;;;;;15.43;13.70;;;12.00;99.90;;;;;;4892275;29;20209;-77
2021/10/05 03:18:30;;;;;;;18.20;15.20;;;12.10;99.90;;;;;;4894557;29;20630;-79
2021/10/05 03:20:59;;;;;;;16.83;14.67;;;12.00;99.90;;;;;;4895167;29;20254;-77
2021/10/05 03:23:26;;;;;;;21.10;16.93;;;11.90;99.90;;;;;;4898764;29;20516;-79
2021/10/05 03:25:53;;;;;;;18.43;15.20;;;12.00;99.90;;;;;;4909663;29;20315;-80
2021/10/05 03:28:20;;;;;;;15.90;13.37;;;12.00;99.90;;;;;;4904534;29;20222;-79
2021/10/05 03:30:47;;;;;;;17.23;14.40;;;11.90;99.90;;;;;;4893544;29;20210;-81
2021/10/05 03:33:13;;;;;;;16.43;14.03;;;12.00;99.90;;;;;;4908572;29;20196;-80
2021/10/05 03:35:40;;;;;;;19.30;15.07;;;12.00;99.90;;;;;;4911933;29;20270;-81
2021/10/05 03:38:08;;;;;;;19.17;15.57;;;12.10;99.90;;;;;;4892397;29;20262;-80
2021/10/05 03:40:35;;;;;;;18.20;14.53;;;12.00;99.90;;;;;;4908443;29;20265;-80
2021/10/05 03:43:02;;;;;;;16.63;14.17;;;12.00;99.90;;;;;;4905151;29;20316;-81
2021/10/05 03:45:29;;;;;;;18.27;15.53;;;12.00;99.90;;;;;;4902204;29;20272;-80
2021/10/05 03:47:55;;;;;;;17.93;14.40;;;12.00;99.90;;;;;;4901684;29;20217;-81
2021/10/05 03:50:22;;;;;;;18.40;15.27;;;12.00;99.90;;;;;;4902448;29;20264;-81
2021/10/05 03:52:51;;;;;;;17.93;14.97;;;12.00;99.90;;;;;;4894695;29;20281;-81
2021/10/05 03:55:19;;;;;;;20.83;16.50;;;12.00;99.90;;;;;;4906269;29;20209;-80
2021/10/05 03:57:47;;;;;;;22.23;17.03;;;12.10;99.90;;;;;;4899396;29;20290;-80
2021/10/05 04:00:15;;;;;;;20.00;16.23;;;12.00;99.90;;;;;;4886626;29;20208;-80
2021/10/05 04:02:42;;;;;;;17.50;13.73;;;12.00;99.90;;;;;;4889760;29;20234;-79
2021/10/05 04:05:09;;;;;;;17.83;14.43;;;12.00;99.90;;;;;;4885592;29;20249;-80
2021/10/05 04:07:36;;;;;;;16.03;14.33;;;12.00;99.90;;;;;;4889664;29;20206;-80
2021/10/05 04:10:05;;;;;;;17.03;15.23;;;12.00;99.90;;;;;;4887424;29;20281;-81
2021/10/05 04:12:33;;;;;;;16.53;14.83;;;12.00;99.90;;;;;;4889606;29;20352;-81
2021/10/05 04:15:00;;;;;;;17.10;14.47;;;12.00;99.90;;;;;;4887667;29;20262;-81
2021/10/05 04:17:29;;;;;;;15.57;13.17;;;12.00;99.90;;;;;;4886862;29;20627;-81
2021/10/05 04:19:56;;;;;;;15.43;13.77;;;12.00;99.90;;;;;;4889790;29;20194;-81
2021/10/05 04:22:23;;;;;;;14.17;12.70;;;11.90;99.90;;;;;;4888192;29;20270;-81
2021/10/05 04:24:50;;;;;;;17.30;13.90;;;11.90;99.90;;;;;;4886698;29;20626;-81
2021/10/05 04:27:17;;;;;;;14.20;11.50;;;11.80;99.90;;;;;;4880578;29;20198;-83
2021/10/05 04:29:45;;;;;;;12.20;10.80;;;11.80;99.90;;;;;;4879124;29;20294;-81
2021/10/05 04:32:12;;;;;;;12.77;10.57;;;11.80;99.90;;;;;;4881509;29;20239;-81
2021/10/05 04:34:39;;;;;;;13.63;10.73;;;11.70;99.90;;;;;;4881304;29;20258;-80
2021/10/05 04:37:06;;;;;;;14.20;11.37;;;11.80;99.90;;;;;;4879370;29;20266;-81
2021/10/05 04:39:33;;;;;;;14.07;11.53;;;11.80;99.90;;;;;;4882201;29;20751;-81
2021/10/05 04:42:00;;;;;;;12.03;10.70;;;11.80;99.90;;;;;;4882226;29;20226;-81
2021/10/05 04:44:27;;;;;;;13.20;10.97;;;11.90;99.90;;;;;;4882202;29;20260;-80
2021/10/05 04:46:55;;;;;;;12.60;10.70;;;11.80;99.90;;;;;;4880574;29;20204;-81
2021/10/05 04:49:22;;;;;;;16.20;12.03;;;11.80;99.90;;;;;;4880539;29;20262;-81
2021/10/05 04:51:49;;;;;;;13.80;10.67;;;11.80;99.90;;;;;;4897885;29;20233;-80
2021/10/05 04:54:16;;;;;;;16.17;12.40;;;11.80;99.90;;;;;;4896375;29;20714;-79
2021/10/05 04:56:43;;;;;;;14.13;11.90;;;11.80;99.90;;;;;;4900651;29;20267;-77
2021/10/05 04:59:09;;;;;;;16.07;12.37;;;11.80;99.90;;;;;;4897092;29;20200;-78
2021/10/05 05:01:36;;;;;;;13.67;11.57;;;11.80;99.90;;;;;;4909260;29;20276;-79
2021/10/05 05:04:05;;;;;;;15.57;11.67;;;11.80;99.90;;;;;;4906137;29;20236;-78
2021/10/05 05:06:31;;;;;;;13.87;11.30;;;11.80;99.90;;;;;;4915286;29;20745;-78
2021/10/05 05:08:58;;;;;;;16.03;10.97;;;11.90;99.90;;;;;;4915781;29;20225;-78
2021/10/05 05:11:25;;;;;;;14.37;11.37;;;11.90;99.90;;;;;;4912240;29;20225;-78
2021/10/05 05:13:52;;;;;;;13.97;11.20;;;11.90;99.90;;;;;;4908223;29;20287;-78
2021/10/05 05:16:19;;;;;;;14.43;10.87;;;11.80;99.90;;;;;;4916316;29;20200;-78
2021/10/05 05:18:45;;;;;;;13.63;11.27;;;11.80;99.90;;;;;;4906255;29;20311;-78
2021/10/05 05:21:13;;;;;;;12.10;10.57;;;11.80;99.90;;;;;;4904727;29;20215;-78
2021/10/05 05:23:40;;;;;;;14.33;10.87;;;11.70;99.90;;;;;;4897988;29;20265;-79
2021/10/05 05:26:07;;;;;;;14.63;11.07;;;11.80;99.90;;;;;;4900074;29;20202;-78
2021/10/05 05:28:34;;;;;;;12.23;10.53;;;11.90;99.90;;;;;;4902122;29;20197;-79
2021/10/05 05:31:01;;;;;;;12.83;10.63;;;11.80;99.90;;;;;;4897001;29;20229;-78
2021/10/05 05:33:28;;;;;;;11.43;9.87;;;11.90;99.90;;;;;;4901738;29;20739;-78
2021/10/05 05:35:54;;;;;;;12.43;10.13;;;11.80;99.90;;;;;;4900408;29;20206;-79
2021/10/05 05:38:23;;;;;;;12.83;11.27;;;11.80;99.90;;;;;;4904990;29;20268;-78
2021/10/05 05:40:51;;;;;;;13.27;10.97;;;11.80;99.90;;;;;;4899602;29;20194;-78
2021/10/05 05:43:17;;;;;;;15.37;12.23;;;11.90;99.90;;;;;;4902297;29;20205;-79
2021/10/05 05:45:44;;;;;;;13.23;11.43;;;11.90;99.90;;;;;;4903261;29;20203;-78
2021/10/05 05:48:11;;;;;;;13.67;11.30;;;11.90;99.90;;;;;;4904088;29;20204;-79
2021/10/05 05:50:38;;;;;;;15.37;11.83;;;11.90;99.90;;;;;;4909111;29;20674;-79
2021/10/05 05:53:05;;;;;;;15.37;12.37;;;11.90;99.90;;;;;;4905995;29;20196;-79
2021/10/05 05:55:33;;;;;;;15.40;12.67;;;11.90;99.90;;;;;;4932306;23;20229;-76
2021/10/05 05:58:07;;;;;;;14.87;12.43;;;12.00;99.90;;;;;;4913921;29;20667;-76
2021/10/05 06:00:34;;;;;;;14.67;11.87;;;12.00;99.90;;;;;;4914517;29;20735;-76
2021/10/05 06:03:01;;;;;;;21.63;17.70;;;12.00;99.90;;;;;;4912541;29;20709;-76
2021/10/05 06:05:28;;;;;;;17.47;15.13;;;12.00;99.90;;;;;;4911165;29;20637;-76
2021/10/05 06:07:55;;;;;;;17.00;15.30;;;12.10;99.90;;;;;;4901600;29;20210;-76
2021/10/05 06:10:22;;;;;;;16.03;14.33;;;12.10;99.90;;;;;;4907787;29;20221;-76
2021/10/05 06:12:50;;;;;;;13.23;11.07;;;12.00;99.90;;;;;;4904008;29;20554;-76
2021/10/05 06:15:18;;;;;;;16.60;11.90;;;12.00;99.90;;;;;;4903074;29;20641;-75
2021/10/05 06:17:47;;;;;;;12.17;10.23;;;12.10;99.90;;;;;;4905106;29;20595;-76
2021/10/05 06:20:16;;;;;;;11.13;9.67;;;12.10;99.90;;;;;;4904290;29;20191;-76
2021/10/05 06:22:43;;;;;;;13.03;10.87;;;12.20;99.90;;;;;;4903563;29;20240;-76
2021/10/05 06:25:12;;;;;;;13.20;11.03;;;12.20;99.90;;;;;;4903195;29;20623;-76
2021/10/05 06:27:39;;;;;;;13.57;9.83;;;12.20;99.90;;;;;;4906502;29;20198;-75
2021/10/05 06:30:10;;;;;;;14.13;12.73;;;12.20;99.90;;;;;;4898741;29;20222;-75
2021/10/05 06:32:37;;;;;;;11.83;10.43;;;12.30;99.90;;;;;;4905922;29;20194;-75
2021/10/05 06:35:05;;;;;;;12.37;10.03;;;12.30;99.90;;;;;;4902623;29;20265;-75
2021/10/05 06:37:32;;;;;;;12.53;10.20;;;12.30;99.90;;;;;;4899837;29;20250;-75
2021/10/05 06:39:59;;;;;;;12.73;10.27;;;12.30;99.90;;;;;;4906119;29;20675;-75
2021/10/05 06:42:26;;;;;;;12.37;10.37;;;12.40;99.90;;;;;;4909477;29;20210;-76
2021/10/05 06:44:52;;;;;;;11.00;9.57;;;12.40;99.90;;;;;;4904269;29;20206;-76
2021/10/05 06:47:20;;;;;;;11.07;8.83;;;12.50;99.90;;;;;;4908800;29;20691;-75
2021/10/05 06:49:47;;;;;;;9.87;8.87;;;12.50;99.90;;;;;;4904074;29;20221;-75
2021/10/05 06:52:14;;;;;;;8.87;7.97;;;12.50;99.90;;;;;;4905878;29;20209;-76
2021/10/05 06:54:41;;;;;;;9.53;8.53;;;12.60;99.90;;;;;;4908749;29;20210;-75
2021/10/05 06:57:08;;;;;;;9.00;8.10;;;12.60;99.90;;;;;;4913585;29;20230;-76
2021/10/05 06:59:34;;;;;;;8.17;7.27;;;12.70;99.90;;;;;;4917861;29;20210;-75
2021/10/05 07:02:01;;;;;;;8.90;8.00;;;12.60;99.90;;;;;;4916719;29;20212;-76
2021/10/05 07:04:29;;;;;;;8.13;7.33;;;12.60;99.90;;;;;;4911019;29;20241;-76
2021/10/05 07:06:56;;;;;;;8.70;7.80;;;12.60;99.90;;;;;;4918933;29;20221;-76
2021/10/05 07:09:23;;;;;;;10.27;8.57;;;12.60;99.90;;;;;;4918671;29;20634;-76
2021/10/05 07:11:49;;;;;;;7.60;6.80;;;12.60;99.90;;;;;;4913052;29;20195;-76
2021/10/05 07:14:16;;;;;;;7.27;6.57;;;12.60;99.90;;;;;;4910063;29;20214;-76
2021/10/05 07:16:43;;;;;;;8.20;7.40;;;12.60;99.90;;;;;;4904832;29;20271;-77
2021/10/05 07:19:10;;;;;;;6.90;6.20;;;12.70;99.90;;;;;;4910534;29;20193;-76
2021/10/05 07:21:38;;;;;;;7.60;6.90;;;12.80;99.90;;;;;;4907797;29;20274;-76
2021/10/05 07:24:05;;;;;;;8.00;7.30;;;12.80;99.90;;;;;;4908472;29;20258;-75
2021/10/05 07:26:32;;;;;;;8.67;7.87;;;12.80;99.90;;;;;;4903679;29;20247;-76
2021/10/05 07:28:59;;;;;;;7.87;7.13;;;12.90;99.90;;;;;;4906740;29;20727;-75
2021/10/05 07:31:26;;;;;;;7.20;6.47;;;13.00;99.90;;;;;;4906078;29;20235;-76
2021/10/05 07:33:53;;;;;;;8.93;8.03;;;13.10;99.90;;;;;;4908055;29;20213;-76
2021/10/05 07:36:20;;;;;;;12.60;11.40;;;13.20;99.90;;;;;;4907142;29;20215;-76
2021/10/05 07:38:49;;;;;;;8.83;7.93;;;13.30;99.90;;;;;;4910771;29;20263;-75
2021/10/05 07:41:15;;;;;;;10.73;7.73;;;13.40;99.90;;;;;;4910718;29;20196;-76
2021/10/05 07:43:42;;;;;;;9.33;8.43;;;13.50;99.90;;;;;;4902732;29;20616;-76
2021/10/05 07:46:09;;;;;;;16.80;15.30;;;13.50;99.90;;;;;;4903079;29;20235;-75
2021/10/05 07:48:36;;;;;;;15.27;14.17;;;13.50;99.90;;;;;;4905511;29;20215;-76
2021/10/05 07:51:03;;;;;;;10.17;9.23;;;13.50;99.90;;;;;;4905385;29;20231;-76
2021/10/05 07:53:30;;;;;;;8.80;7.63;;;13.50;99.90;;;;;;4906899;29;20256;-76
2021/10/05 07:55:58;;;;;;;14.73;13.63;;;13.50;99.90;;;;;;4906479;29;20227;-75
2021/10/05 07:58:25;;;;;;;14.70;13.60;;;13.50;99.90;;;;;;4906726;29;20192;-76
2021/10/05 08:00:51;;;;;;;14.60;13.53;;;13.40;99.90;;;;;;4906868;29;20200;-75
2021/10/05 08:03:18;;;;;;;15.27;13.90;;;13.50;99.90;;;;;;4906784;29;20272;-76
2021/10/05 08:05:45;;;;;;;15.20;14.10;;;13.40;99.90;;;;;;4907375;29;20318;-76
2021/10/05 08:08:12;;;;;;;13.03;12.13;;;13.60;99.90;;;;;;4906210;29;20196;-76
2021/10/05 08:10:41;;;;;;;7.87;7.07;;;13.70;99.90;;;;;;4901977;29;20223;-76
2021/10/05 08:13:10;;;;;;;16.87;15.57;;;13.90;99.90;;;;;;4908557;29;20211;-76
2021/10/05 08:15:38;;;;;;;9.77;8.87;;;14.10;99.90;;;;;;4901580;29;20236;-75
2021/10/05 08:18:06;;;;;;;8.43;7.53;;;14.10;99.90;;;;;;4909415;29;20228;-76
2021/10/05 08:20:33;;;;;;;11.33;10.43;;;14.20;99.90;;;;;;4903092;29;20725;-76
2021/10/05 08:23:00;;;;;;;8.60;7.73;;;14.30;99.90;;;;;;4905026;29;20204;-75
2021/10/05 08:25:27;;;;;;;8.40;7.33;;;14.50;99.90;;;;;;4906404;29;20263;-76
2021/10/05 08:27:55;;;;;;;11.67;10.77;;;14.70;99.90;;;;;;4908221;29;20252;-76
2021/10/05 08:30:23;;;;;;;15.97;14.77;;;14.80;99.90;;;;;;4906551;29;20245;-76
2021/10/05 08:32:50;;;;;;;15.60;14.50;;;14.90;99.90;;;;;;4907286;29;20197;-76
2021/10/05 08:35:18;;;;;;;13.43;12.33;;;14.90;99.90;;;;;;4904602;29;20212;-76
2021/10/05 08:37:44;;;;;;;11.83;10.83;;;15.00;99.90;;;;;;4906391;29;20517;-76
2021/10/05 08:40:13;;;;;;;10.87;10.00;;;15.00;99.90;;;;;;4907079;29;20346;-76
2021/10/05 08:42:41;;;;;;;13.63;12.73;;;15.10;99.90;;;;;;4900945;29;20684;-76
2021/10/05 08:45:10;;;;;;;7.27;6.57;;;15.20;99.90;;;;;;4903743;29;20266;-76
2021/10/05 08:47:38;;;;;;;8.43;7.63;;;15.30;99.90;;;;;;4906053;29;20201;-75
2021/10/05 08:50:08;;;;;;;12.23;11.23;;;15.40;99.90;;;;;;4905895;29;20220;-76
2021/10/05 08:52:34;;;;;;;6.60;5.93;;;15.30;99.90;;;;;;4907223;29;20207;-76
2021/10/05 08:55:01;;;;;;;13.00;12.10;;;15.30;99.90;;;;;;4903117;29;20211;-76
2021/10/05 08:57:28;;;;;;;7.50;6.80;;;15.30;99.90;;;;;;4900898;29;20218;-76
2021/10/05 08:59:55;;;;;;;6.23;5.63;;;15.30;99.90;;;;;;4907438;29;20210;-76
2021/10/05 09:02:22;;;;;;;13.37;12.30;;;15.50;99.90;;;;;;4903681;29;20264;-76
2021/10/05 09:04:56;;;;;;;9.00;8.10;;;15.60;99.90;;;;;;4905827;29;20248;-76
2021/10/05 09:07:25;;;;;;;12.47;11.67;;;15.70;99.90;;;;;;4904162;29;20352;-76
2021/10/05 09:09:57;;;;;;;6.50;5.90;;;15.80;99.90;;;;;;4907451;29;20203;-76
2021/10/05 09:12:26;;;;;;;14.10;13.20;;;15.80;99.90;;;;;;4901016;29;20208;-76
2021/10/05 09:14:53;;;;;;;11.43;10.63;;;15.70;99.90;;;;;;4898465;29;20290;-76
2021/10/05 09:17:21;;;;;;;5.57;5.07;;;15.80;99.90;;;;;;4904460;29;20218;-76
2021/10/05 09:19:51;;;;;;;13.30;12.40;;;15.90;99.90;;;;;;4908489;29;20240;-76
2021/10/05 09:22:19;;;;;;;12.30;11.50;;;16.10;99.90;;;;;;4900142;29;20208;-76
2021/10/05 09:24:48;;;;;;;9.27;8.57;;;16.20;99.90;;;;;;4908321;29;20205;-76
2021/10/05 09:27:15;;;;;;;5.57;5.07;;;16.50;99.90;;;;;;4905696;29;20219;-76
2021/10/05 09:29:44;;;;;;;9.53;8.83;;;16.60;99.90;;;;;;4906253;29;20230;-76
2021/10/05 09:32:13;;;;;;;7.97;7.33;;;16.70;99.90;;;;;;4903570;29;20219;-76
2021/10/05 09:34:43;;;;;;;11.93;11.23;;;16.80;99.90;;;;;;4906651;29;20206;-76
2021/10/05 09:37:14;;;;;;;8.00;7.40;;;16.80;99.90;;;;;;4906730;29;20731;-76
2021/10/05 09:39:45;;;;;;;6.53;6.03;;;16.90;99.90;;;;;;4902586;29;20275;-76
2021/10/05 09:42:18;;;;;;;11.20;10.50;;;16.90;99.90;;;;;;4904540;29;20200;-77
2021/10/05 09:44:50;;;;;;;11.03;10.33;;;16.80;99.90;;;;;;4908167;29;20246;-76
2021/10/05 09:47:17;;;;;;;12.73;11.93;;;16.70;99.90;;;;;;4908927;29;20290;-77
2021/10/05 09:49:45;;;;;;;12.00;11.30;;;16.60;99.90;;;;;;4903996;29;20256;-76
2021/10/05 09:52:14;;;;;;;12.83;12.13;;;16.50;99.90;;;;;;4904125;29;20224;-77
2021/10/05 09:54:43;;;;;;;5.00;4.70;;;16.50;99.90;;;;;;4905824;29;20207;-76
2021/10/05 09:57:12;;;;;;;3.30;3.10;;;16.60;99.90;;;;;;4903847;29;20298;-76
2021/10/05 09:59:39;;;;;;;3.67;3.43;;;16.70;99.90;;;;;;4903864;29;20705;-76
2021/10/05 10:02:08;;;;;;;5.73;5.43;;;16.70;99.90;;;;;;4905019;29;20201;-76
2021/10/05 10:04:36;;;;;;;3.20;3.00;;;16.80;99.90;;;;;;4903560;29;20277;-76
2021/10/05 10:07:03;;;;;;;10.00;9.50;;;16.80;99.90;;;;;;4903541;29;20219;-76
2021/10/05 10:09:32;;;;;;;10.10;9.50;;;16.90;99.90;;;;;;4900353;29;20280;-76
2021/10/05 10:12:01;;;;;;;8.40;7.90;;;17.00;99.90;;;;;;4906631;29;20234;-76
2021/10/05 10:14:29;;;;;;;11.13;10.53;;;17.00;99.90;;;;;;4907422;29;20204;-76
2021/10/05 10:16:56;;;;;;;4.07;3.77;;;17.00;99.90;;;;;;4902813;29;20275;-76
2021/10/05 10:19:30;;;;;;;3.00;2.80;;;17.10;99.90;;;;;;4901038;29;20203;-76
2021/10/05 10:22:10;;;;;;;8.20;7.70;;;17.10;99.90;;;;;;4908308;29;20198;-76
2021/10/05 10:24:50;;;;;;;3.10;2.90;;;17.10;99.90;;;;;;4904754;29;20204;-76
2021/10/05 10:27:17;;;;;;;3.73;3.53;;;17.10;99.90;;;;;;4902890;29;20223;-76
2021/10/05 10:29:45;;;;;;;3.23;3.03;;;17.20;99.90;;;;;;4910567;29;20227;-76
2021/10/05 10:32:15;;;;;;;3.17;2.97;;;17.20;99.90;;;;;;4907581;29;20302;-76
2021/10/05 10:34:44;;;;;;;5.27;2.83;;;17.20;99.90;;;;;;4907896;29;20212;-76
2021/10/05 10:37:17;;;;;;;7.10;6.70;;;17.10;99.90;;;;;;4907392;29;20227;-76
2021/10/05 10:39:45;;;;;;;7.43;6.93;;;17.10;99.90;;;;;;4904379;29;20244;-76
2021/10/05 10:42:25;;;;;;;9.90;9.30;;;17.20;99.90;;;;;;4916193;29;20191;-76
2021/10/05 10:44:52;;;;;;;10.50;9.90;;;17.20;99.90;;;;;;4908189;29;20282;-76
2021/10/05 10:47:21;;;;;;;3.00;2.80;;;17.30;99.90;;;;;;4911331;29;20302;-76
2021/10/05 10:49:55;;;;;;;3.43;3.17;;;17.40;99.90;;;;;;4909278;29;20208;-76
2021/10/05 10:52:25;;;;;;;11.33;10.73;;;17.50;99.90;;;;;;4910004;29;20220;-76
2021/10/05 10:54:53;;;;;;;7.83;7.23;;;17.50;99.90;;;;;;4898201;29;20275;-76
2021/10/05 10:57:33;;;;;;;3.57;3.37;;;17.60;99.90;;;;;;4906132;29;20251;-76
2021/10/05 11:00:28;;;;;;;3.00;2.80;;;17.60;99.90;;;;;;4902739;29;20201;-77
2021/10/05 11:02:57;;;;;;;3.13;2.93;;;17.40;99.90;;;;;;4901137;29;20192;-77
2021/10/05 11:05:25;;;;;;;3.00;2.80;;;17.50;99.90;;;;;;4905128;29;20278;-76
2021/10/05 11:07:52;;;;;;;3.03;2.80;;;17.50;99.90;;;;;;4908540;29;20255;-76
2021/10/05 11:10:25;;;;;;;8.50;8.00;;;17.50;99.90;;;;;;4907619;29;20205;-77
2021/10/05 11:12:55;;;;;;;2.97;2.77;;;17.60;99.90;;;;;;4907856;29;20666;-76
2021/10/05 11:15:33;;;;;;;2.90;2.70;;;17.50;99.90;;;;;;4903185;29;20211;-77
2021/10/05 11:18:08;;;;;;;3.87;3.60;;;17.50;99.90;;;;;;4905959;29;20201;-76
2021/10/05 11:20:37;;;;;;;10.27;9.67;;;17.50;99.90;;;;;;4908097;29;20212;-77
2021/10/05 11:23:04;;;;;;;9.30;8.80;;;17.50;99.90;;;;;;4904229;29;20265;-77
2021/10/05 11:25:31;;;;;;;10.20;9.60;;;17.60;99.90;;;;;;4901670;29;20260;-77
2021/10/05 11:28:12;;;;;;;11.43;10.83;;;17.80;99.90;;;;;;4910642;29;20653;-76
2021/10/05 11:30:47;;;;;;;4.53;4.23;;;17.90;99.90;;;;;;4903906;29;20256;-76
2021/10/05 11:33:19;;;;;;;2.90;2.70;;;17.90;99.90;;;;;;4910394;29;20200;-76
2021/10/05 11:35:46;;;;;;;11.20;10.60;;;17.90;99.90;;;;;;4904849;29;20228;-76
2021/10/05 11:38:14;;;;;;;10.87;10.27;;;17.80;99.90;;;;;;4904925;29;20213;-76
2021/10/05 11:40:50;;;;;;;3.70;3.40;;;17.70;99.90;;;;;;4907280;29;20292;-76
2021/10/05 11:43:19;;;;;;;3.30;3.00;;;17.50;99.90;;;;;;4907332;29;20635;-76
2021/10/05 11:45:46;;;;;;;3.83;3.07;;;17.40;99.90;;;;;;4908396;29;20222;-76
2021/10/05 11:48:12;;;;;;;10.10;9.40;;;17.40;99.90;;;;;;4907044;29;20248;-76
2021/10/05 11:50:39;;;;;;;2.93;2.73;;;17.40;99.90;;;;;;4902786;29;20200;-76
2021/10/05 11:53:06;;;;;;;2.60;2.50;;;17.60;99.90;;;;;;4903443;29;20633;-76
2021/10/05 11:55:35;;;;;;;10.70;10.10;;;17.70;99.90;;;;;;4908748;29;20311;-76
2021/10/05 11:58:02;;;;;;;11.23;10.53;;;17.70;99.90;;;;;;4905927;29;20954;-77
2021/10/05 12:00:31;;;;;;;11.80;11.10;;;17.80;99.90;;;;;;4902183;29;20348;-76
2021/10/05 12:02:57;;;;;;;10.20;9.50;;;17.90;99.90;;;;;;4908504;29;20261;-76
2021/10/05 12:05:25;;;;;;;5.30;5.00;;;17.90;99.90;;;;;;4907848;29;20220;-77
2021/10/05 12:07:52;;;;;;;4.80;4.40;;;18.00;99.90;;;;;;4901619;29;20645;-76
2021/10/05 12:10:21;;;;;;;3.57;3.37;;;18.00;99.90;;;;;;4907490;29;20208;-77
2021/10/05 12:12:48;;;;;;;3.30;3.00;;;18.10;99.90;;;;;;4902494;29;20226;-77
2021/10/05 12:15:17;;;;;;;5.50;5.10;;;18.10;99.90;;;;;;4909789;29;20610;-76
2021/10/05 12:17:45;;;;;;;3.10;2.90;;;18.10;99.90;;;;;;4903427;29;20261;-76
2021/10/05 12:20:15;;;;;;;4.20;3.90;;;18.10;99.90;;;;;;4904137;29;20743;-76
2021/10/05 12:22:46;;;;;;;3.80;3.20;;;18.00;99.90;;;;;;4906553;29;20193;-76
2021/10/05 12:25:15;;;;;;;9.13;8.53;;;18.00;99.90;;;;;;4905618;29;20210;-77
2021/10/05 12:27:45;;;;;;;2.93;2.73;;;18.00;99.90;;;;;;4907512;29;20667;-77
2021/10/05 12:30:14;;;;;;;3.57;3.03;;;18.10;99.90;;;;;;4906123;29;20198;-76
2021/10/05 12:32:43;;;;;;;3.20;2.90;;;18.10;99.90;;;;;;4906520;29;20228;-77
2021/10/05 12:35:26;;;;;;;3.27;3.07;;;18.10;99.90;;;;;;4906167;29;20214;-76
2021/10/05 12:38:00;;;;;;;2.97;2.77;;;18.00;99.90;;;;;;4910565;29;20214;-77
2021/10/05 12:40:28;;;;;;;5.37;5.07;;;18.00;99.90;;;;;;4879989;29;20559;-76